17:09
Airports
History
Links
Donate
Help keep this website running!
PayPal
Bitcoin
This page is community maintained. The information is intended for PC simulator navigation or reference.
Always use approved charts for navigation.
LGKO
KOS
KOS (LGKO)
Irakleideis, South Aegean, Greece (85302)
(C)
Lat/Lng:36° 47' 39.85" N / 27° 5' 26.75" E
36.794403 / 27.090764
Elevation:412'ft / 126mMSL
ID / ICAO:LGKO
Runways:1
Longest:14-32
Asphalt 2,414m / 7,920ft
Controlled:Yes
METAR16:50 GMT 2017-11-21
Altimeter: 30.09
Visibility: 6.2 statute miles
Wind: 7 knots (from 340°)
Temp: 10°c / 50°f
Humidity: %

METAR: LGKO 211650Z 34007KT 9999 SCT025 10/00 Q1019

(Powered by phpweather)
Airport Radio Frequencies
ATIS: 126.95
Tower: 121.05, 122.1
Approach: 119.95, 122.1
Nearby VORs <50NM
Nearby NDBs
Runway 14 / 32
Dimensions:2414 x 45.1m 7920' x 148'ft
Surface:Asphalt
Edge Lights:Medium intensity
Runway 14 [A]Runway 32 [B]
Heading:148°TH 328°TH
Lat:
Lng:
36° 48' 13.1"N
27° 5' 1.1"E
36° 47' 6.6"N
27° 5' 52.4"E
ALS:SALS
TDZ:Yes, lighted
User Notes and Comments
36° 47' 39.85" N / 27° 5' 26.75" E
Distance To
Airport ID:
Nearby Airports
(U) LEROS 31.4 NM
LGLE NNW 329°
(C) IMSIK 39.9 NM
LTBV ( WX ) NE 53°
(U) ASTYPALAIA 42.3 NM
LGPL WSW 249°
(C) MILAS BODRUM 44.7 NM
LTFE NE 45°
(C) DIAGORAS 61.4 NM
LGRP ( WX ) ESE 115°
(C) SAMOS 62.6 NM
LGSM ( WX ) N 350°
(C) MARITSA 63.2 NM
LGRD ESE 116°
VFR Chart
Flight Planning at SkyVector.com